CYOO

Oshawa Municipal Airport

Airport
ICAO code
CYOO
IATA Code
YOO
Summary
ICAO Region
NAM
ICAO Territory
Location

Oshawa, Ontario,

Serving
Oshawa
Elevation
459 ft
Coordinates
43° 55' 20" N , 78° 53' 43" W
Metar
Observation
CYOO 282100Z AUTO 31006KT 290V360 9SM OVC030 01/M04 A2998 RMK SLP159
Station
OSHAWA
Date/Time
2022-11-28 21:00:00
Wind direction
310°
Wind speed
06 kts
Lowest cloud amount
overcast
Temperature
1°C
Dew point
-4°C
Humidity
69%
Weather condition
n/a

Description

Oshawa Municipal Airport is a municipal airport adjacent to the north end of the city of Oshawa, Ontario, Canada. Oshawa Airport is one of the major general aviation airports in the Greater Toronto Area.

Climatology

Runways

Designator Length Width Surface Rops
5/23 809 30 ASP No/No
12/30 1219 30 ASP No/No

Airport map

Aerial View

SKYbrary Partners:

Safety knowledge contributed by: